Time;durP1;ratioP1;P1;durP2;ratioP2;P2;SDS_P1;SDS_P2;PMS_P1;PMS_P2;Temp;Humidity;BMP_temperature;BMP_pressure;BME280_temperature;BME280_humidity;BME280_pressure;Samples;Min_cycle;Max_cycle;Signal;HPM_P1;HPM_P2
2021/12/30 00:01:47;;;;;;;;;;;10.50;99.90;;;;;;5091876;28;19915;-76
2021/12/30 00:04:13;;;;;;;;;;;10.70;99.90;;;;;;5091372;28;19922;-77
2021/12/30 00:06:40;;;;;;;;;;;10.70;99.90;;;;;;5074018;28;19958;-77
2021/12/30 00:09:10;;;;;;;;;;;10.70;99.90;;;;;;5073561;28;19912;-76
2021/12/30 00:11:35;;;;;;;;;;;10.70;99.90;;;;;;5091836;28;20465;-76
2021/12/30 00:14:01;;;;;;;;;;;10.70;99.90;;;;;;5091122;28;19920;-77
2021/12/30 00:16:26;;;;;;;;;;;10.70;99.90;;;;;;5091788;28;19954;-77
2021/12/30 00:18:52;;;;;;;;;;;10.90;99.90;;;;;;5091536;28;20388;-76
2021/12/30 00:21:19;;;;;;;;;;;10.90;99.90;;;;;;5091505;28;19908;-77
2021/12/30 00:23:45;;;;;;;;;;;11.00;99.90;;;;;;5090658;28;19960;-77
2021/12/30 00:26:10;;;;;;;;;;;11.10;99.90;;;;;;5091347;28;19908;-77
2021/12/30 00:28:36;;;;;;;;;;;11.00;99.90;;;;;;5091238;28;20279;-76
2021/12/30 00:31:02;;;;;;;;;;;11.00;99.90;;;;;;5087471;28;20345;-77
2021/12/30 00:33:27;;;;;;;;;;;11.10;99.90;;;;;;5071351;28;19912;-77
2021/12/30 00:35:53;;;;;;;;;;;11.00;99.90;;;;;;5088086;28;19947;-77
2021/12/30 00:38:19;;;;;;;;;;;10.70;99.90;;;;;;5091023;28;19908;-77
2021/12/30 00:40:45;;;;;;;;;;;10.80;99.90;;;;;;5091191;28;19961;-77
2021/12/30 00:43:11;;;;;;;;;;;10.80;99.90;;;;;;5090702;28;19953;-77
2021/12/30 00:45:36;;;;;;;;;;;10.90;99.90;;;;;;5091258;28;20292;-76
2021/12/30 00:48:03;;;;;;;;;;;10.90;99.90;;;;;;5072919;28;19908;-77
2021/12/30 00:50:30;;;;;;;;;;;10.70;99.90;;;;;;5073084;28;19915;-77
2021/12/30 00:52:58;;;;;;;;;;;10.90;99.90;;;;;;5090815;28;19909;-77
2021/12/30 00:55:23;;;;;;;;;;;10.80;99.90;;;;;;5090731;28;19962;-77
2021/12/30 00:57:49;;;;;;;;;;;10.70;99.90;;;;;;5069745;28;19916;-76
2021/12/30 01:00:16;;;;;;;;;;;10.60;99.90;;;;;;5090517;28;19983;-77
2021/12/30 01:02:42;;;;;;;;;;;10.50;99.90;;;;;;5090862;28;19908;-77
2021/12/30 01:05:08;;;;;;;;;;;10.70;99.90;;;;;;5090353;28;19912;-77
2021/12/30 01:07:33;;;;;;;;;;;10.70;99.90;;;;;;5076901;28;19999;-76
2021/12/30 01:10:00;;;;;;;;;;;10.50;99.90;;;;;;5094786;28;20004;-76
2021/12/30 01:12:25;;;;;;;;;;;10.60;99.90;;;;;;5094996;28;19908;-77
2021/12/30 01:14:51;;;;;;;;;;;10.50;99.90;;;;;;5075972;28;19927;-76
2021/12/30 01:17:27;;;;;;;;;;;10.50;99.90;;;;;;5087788;28;20518;-77
2021/12/30 01:19:53;;;;;;;;;;;10.50;99.90;;;;;;5089499;28;19934;-77
2021/12/30 01:22:24;;;;;;;;;;;10.60;99.90;;;;;;5093787;28;19909;-77
2021/12/30 01:24:50;;;;;;;;;;;10.60;99.90;;;;;;5093550;28;20509;-76
2021/12/30 01:27:16;;;;;;;;;;;10.60;99.90;;;;;;5094632;28;19912;-76
2021/12/30 01:29:42;;;;;;;;;;;10.30;99.90;;;;;;5076350;28;20024;-76
2021/12/30 01:32:07;;;;;;;;;;;10.20;99.90;;;;;;5094594;28;19908;-76
2021/12/30 01:34:33;;;;;;;;;;;10.20;99.90;;;;;;5093597;28;20358;-77
2021/12/30 01:37:01;;;;;;;;;;;10.30;99.90;;;;;;5094471;28;20004;-77
2021/12/30 01:39:27;;;;;;;;;;;10.30;99.90;;;;;;5094348;28;19908;-77
2021/12/30 01:41:53;;;;;;;;;;;10.30;99.90;;;;;;5094497;28;19908;-77
2021/12/30 01:44:18;;;;;;;;;;;10.60;99.90;;;;;;5094186;28;19935;-76
2021/12/30 01:46:44;;;;;;;;;;;10.60;99.90;;;;;;5087877;28;19966;-76
2021/12/30 01:49:11;;;;;;;;;;;10.50;99.90;;;;;;5094413;28;20404;-77
2021/12/30 01:51:37;;;;;;;;;;;10.60;99.90;;;;;;5088331;28;19955;-77
2021/12/30 01:54:03;;;;;;;;;;;10.40;99.90;;;;;;5093602;28;20322;-77
2021/12/30 01:56:28;;;;;;;;;;;10.30;99.90;;;;;;5094173;28;19915;-76
2021/12/30 01:58:55;;;;;;;;;;;10.30;99.90;;;;;;5094135;28;19908;-77
2021/12/30 02:01:20;;;;;;;;;;;10.50;99.90;;;;;;5093628;28;20411;-76
2021/12/30 02:03:46;;;;;;;;;;;10.50;99.90;;;;;;5093404;28;19916;-77
2021/12/30 02:06:11;;;;;;;;;;;10.50;99.90;;;;;;5093776;28;19953;-77
2021/12/30 02:08:37;;;;;;;;;;;10.70;99.90;;;;;;5093997;28;20003;-76
2021/12/30 02:11:02;;;;;;;;;;;10.60;99.90;;;;;;5094376;28;19908;-77
2021/12/30 02:13:28;;;;;;;;;;;10.50;99.90;;;;;;5093712;28;20012;-76
2021/12/30 02:16:00;;;;;;;;;;;10.50;99.90;;;;;;5093394;28;20348;-77
2021/12/30 02:18:26;;;;;;;;;;;10.60;99.90;;;;;;5092677;28;19908;-77
2021/12/30 02:20:52;;;;;;;;;;;10.20;99.90;;;;;;5093538;28;20287;-77
2021/12/30 02:23:23;;;;;;;;;;;10.10;99.90;;;;;;5092572;28;20002;-76
2021/12/30 02:25:50;;;;;;;;;;;10.00;99.90;;;;;;5093150;28;19912;-78
2021/12/30 02:28:16;;;;;;;;;;;10.00;99.90;;;;;;5093565;28;20253;-77
2021/12/30 02:30:42;;;;;;;;;;;10.00;99.90;;;;;;5074984;28;19953;-76
2021/12/30 02:33:08;;;;;;;;;;;10.30;99.90;;;;;;5092642;28;19919;-76
2021/12/30 02:35:33;;;;;;;;;;;10.30;99.90;;;;;;5093169;28;19908;-77
2021/12/30 02:37:59;;;;;;;;;;;10.40;99.90;;;;;;5093257;28;19927;-77
2021/12/30 02:40:26;;;;;;;;;;;10.30;99.90;;;;;;5093356;28;19908;-77
2021/12/30 02:42:51;;;;;;;;;;;10.10;99.90;;;;;;5093071;28;19908;-76
2021/12/30 02:45:17;;;;;;;;;;;10.60;99.90;;;;;;5092876;28;19919;-76
2021/12/30 02:47:42;;;;;;;;;;;10.60;99.90;;;;;;5093402;28;19908;-76
2021/12/30 02:50:08;;;;;;;;;;;10.60;99.90;;;;;;5093282;28;19938;-76
2021/12/30 02:52:33;;;;;;;;;;;10.50;99.90;;;;;;5088906;28;19912;-77
2021/12/30 02:54:59;;;;;;;;;;;10.50;99.90;;;;;;5092455;28;19916;-76
2021/12/30 02:57:25;;;;;;;;;;;10.60;99.90;;;;;;5094249;28;19908;-76
2021/12/30 02:59:50;;;;;;;;;;;10.70;99.90;;;;;;5093026;28;20003;-77
2021/12/30 03:02:16;;;;;;;;;;;10.70;99.90;;;;;;5092762;28;20282;-77
2021/12/30 03:04:41;;;;;;;;;;;10.80;99.90;;;;;;5092465;28;19919;-77
2021/12/30 03:07:07;;;;;;;;;;;10.80;99.90;;;;;;5092881;28;20434;-76
2021/12/30 03:09:32;;;;;;;;;;;10.80;99.90;;;;;;5092861;28;19916;-76
2021/12/30 03:11:58;;;;;;;;;;;10.70;99.90;;;;;;5092634;28;19908;-78
2021/12/30 03:14:25;;;;;;;;;;;10.60;99.90;;;;;;5092059;28;19919;-77
2021/12/30 03:16:51;;;;;;;;;;;10.50;99.90;;;;;;5074252;28;19908;-76
2021/12/30 03:19:16;;;;;;;;;;;10.40;99.90;;;;;;5092705;28;19908;-77
2021/12/30 03:21:42;;;;;;;;;;;10.30;99.90;;;;;;5086861;28;19916;-76
2021/12/30 03:24:08;;;;;;;;;;;10.40;99.90;;;;;;5091570;28;20011;-78
2021/12/30 03:26:35;;;;;;;;;;;10.50;99.90;;;;;;5092440;28;20008;-77
2021/12/30 03:29:00;;;;;;;;;;;10.50;99.90;;;;;;5092151;28;19912;-77
2021/12/30 03:31:26;;;;;;;;;;;10.40;99.90;;;;;;5092448;28;20323;-77
2021/12/30 03:33:52;;;;;;;;;;;10.30;99.90;;;;;;5073637;28;20287;-74
2021/12/30 03:36:19;;;;;;;;;;;10.30;99.90;;;;;;5092349;28;19909;-74
2021/12/30 03:38:46;;;;;;;;;;;10.20;99.90;;;;;;5092057;28;19954;-74
2021/12/30 03:41:13;;;;;;;;;;;10.20;99.90;;;;;;5092319;28;20332;-76
2021/12/30 03:43:39;;;;;;;;;;;10.20;99.90;;;;;;5073291;28;20353;-77
2021/12/30 03:46:05;;;;;;;;;;;10.20;99.90;;;;;;5092035;28;19920;-76
2021/12/30 03:48:35;;;;;;;;;;;10.20;99.90;;;;;;5092022;28;19966;-74
2021/12/30 03:51:05;;;;;;;;;;;10.20;99.90;;;;;;5091175;28;19930;-74
2021/12/30 03:53:31;;;;;;;;;;;10.20;99.90;;;;;;5090873;28;20352;-74
2021/12/30 03:55:56;;;;;;;;;;;10.20;99.90;;;;;;5092242;28;19908;-74
2021/12/30 03:58:22;;;;;;;;;;;10.10;99.90;;;;;;5091930;28;19908;-74
2021/12/30 04:00:47;;;;;;;;;;;10.20;99.90;;;;;;5091796;28;19908;-74
2021/12/30 04:03:13;;;;;;;;;;;10.10;99.90;;;;;;5091115;28;19933;-74
2021/12/30 04:05:38;;;;;;;;;;;10.00;99.90;;;;;;5091662;28;19935;-74
2021/12/30 04:08:07;;;;;;;;;;;10.10;99.90;;;;;;5091504;28;19908;-74
2021/12/30 04:10:33;;;;;;;;;;;10.00;99.90;;;;;;5091586;28;20019;-74
2021/12/30 04:12:59;;;;;;;;;;;10.10;99.90;;;;;;5073256;28;20304;-74
2021/12/30 04:15:24;;;;;;;;;;;10.00;99.90;;;;;;5091039;28;19916;-77
2021/12/30 04:17:50;;;;;;;;;;;10.00;99.90;;;;;;5091405;28;19912;-77
2021/12/30 04:20:16;;;;;;;;;;;9.90;99.90;;;;;;5091364;28;19908;-77
2021/12/30 04:22:42;;;;;;;;;;;10.00;99.90;;;;;;5091031;28;19914;-78
2021/12/30 04:25:09;;;;;;;;;;;10.00;99.90;;;;;;5090525;28;20291;-76
2021/12/30 04:27:35;;;;;;;;;;;10.00;99.90;;;;;;5091390;28;19915;-76
2021/12/30 04:30:01;;;;;;;;;;;10.00;99.90;;;;;;5091188;28;19955;-76
2021/12/30 04:32:26;;;;;;;;;;;10.10;99.90;;;;;;5091585;28;20001;-76
2021/12/30 04:34:52;;;;;;;;;;;10.20;99.90;;;;;;5090716;28;19908;-77
2021/12/30 04:37:17;;;;;;;;;;;10.20;99.90;;;;;;5091297;28;20189;-76
2021/12/30 04:39:43;;;;;;;;;;;10.40;99.90;;;;;;5090689;28;20300;-76
2021/12/30 04:42:09;;;;;;;;;;;10.40;99.90;;;;;;5090912;28;19991;-77
2021/12/30 04:44:34;;;;;;;;;;;10.40;99.90;;;;;;5090490;28;20015;-77
2021/12/30 04:47:00;;;;;;;;;;;10.50;99.90;;;;;;5091108;28;19951;-76
2021/12/30 04:49:25;;;;;;;;;;;10.40;99.90;;;;;;5091038;28;20372;-76
2021/12/30 04:51:51;;;;;;;;;;;10.20;99.90;;;;;;5091000;28;20003;-77
2021/12/30 04:54:17;;;;;;;;;;;10.10;99.90;;;;;;5090147;28;19931;-78
2021/12/30 04:56:42;;;;;;;;;;;10.10;99.90;;;;;;5072781;28;19912;-76
2021/12/30 04:59:08;;;;;;;;;;;10.10;99.90;;;;;;5090915;28;19912;-77
2021/12/30 05:01:33;;;;;;;;;;;10.00;99.90;;;;;;5072806;28;19915;-76
2021/12/30 05:03:59;;;;;;;;;;;10.10;99.90;;;;;;5090325;28;19908;-77
2021/12/30 05:06:24;;;;;;;;;;;10.20;99.90;;;;;;5090806;28;19945;-77
2021/12/30 05:08:50;;;;;;;;;;;10.20;99.90;;;;;;5091074;28;20180;-76
2021/12/30 05:11:15;;;;;;;;;;;10.20;99.90;;;;;;5072677;28;19908;-77
2021/12/30 05:13:41;;;;;;;;;;;10.30;99.90;;;;;;5090550;28;20369;-77
2021/12/30 05:16:06;;;;;;;;;;;10.40;99.90;;;;;;5091114;28;19916;-76
2021/12/30 05:18:33;;;;;;;;;;;10.40;99.90;;;;;;5091374;28;19915;-76
2021/12/30 05:21:00;;;;;;;;;;;10.40;99.90;;;;;;5090099;28;19908;-77
2021/12/30 05:23:26;;;;;;;;;;;10.40;99.90;;;;;;5089199;28;20368;-76
2021/12/30 05:25:51;;;;;;;;;;;10.40;99.90;;;;;;5090565;28;19966;-77
2021/12/30 05:28:17;;;;;;;;;;;10.30;99.90;;;;;;5091036;28;19991;-76
2021/12/30 05:30:42;;;;;;;;;;;10.30;99.90;;;;;;5091065;28;19944;-76
2021/12/30 05:33:07;;;;;;;;;;;10.40;99.90;;;;;;5090459;28;20267;-77
2021/12/30 05:35:33;;;;;;;;;;;10.40;99.90;;;;;;5072526;28;19915;-76
2021/12/30 05:38:01;;;;;;;;;;;10.40;99.90;;;;;;5090764;28;19931;-77
2021/12/30 05:40:26;;;;;;;;;;;10.60;99.90;;;;;;5090971;28;19912;-77
2021/12/30 05:42:52;;;;;;;;;;;10.50;99.90;;;;;;5090541;28;19919;-77
2021/12/30 05:45:18;;;;;;;;;;;10.50;99.90;;;;;;5090485;28;20391;-78
2021/12/30 05:47:46;;;;;;;;;;;10.60;99.90;;;;;;5090545;28;20315;-78
2021/12/30 05:50:12;;;;;;;;;;;10.60;99.90;;;;;;5090736;28;19909;-77
2021/12/30 05:52:39;;;;;;;;;;;10.70;99.90;;;;;;5087253;28;20242;-77
2021/12/30 05:55:05;;;;;;;;;;;10.60;99.90;;;;;;5093600;28;19914;-77
2021/12/30 05:57:31;;;;;;;;;;;10.60;99.90;;;;;;5094038;28;20007;-76
2021/12/30 05:59:56;;;;;;;;;;;10.60;99.90;;;;;;5094075;28;19939;-77
2021/12/30 06:02:22;;;;;;;;;;;10.70;99.90;;;;;;5094021;28;20273;-76
2021/12/30 06:04:48;;;;;;;;;;;10.50;99.90;;;;;;5093642;28;20347;-76
2021/12/30 06:07:13;;;;;;;;;;;10.70;99.90;;;;;;5093872;28;19961;-77
2021/12/30 06:09:39;;;;;;;;;;;10.60;99.90;;;;;;5093952;28;20277;-76
2021/12/30 06:12:04;;;;;;;;;;;10.50;99.90;;;;;;5093759;28;19916;-78
2021/12/30 06:14:30;;;;;;;;;;;10.60;99.90;;;;;;5093327;28;19920;-76
2021/12/30 06:16:55;;;;;;;;;;;10.70;99.90;;;;;;5093736;28;19951;-77
2021/12/30 06:19:21;;;;;;;;;;;10.70;99.90;;;;;;5093711;28;19965;-77
2021/12/30 06:21:46;;;;;;;;;;;10.60;99.90;;;;;;5074756;28;19915;-76
2021/12/30 06:24:12;;;;;;;;;;;10.80;99.90;;;;;;5092785;28;19912;-76
2021/12/30 06:26:37;;;;;;;;;;;10.80;99.90;;;;;;5093264;28;20007;-77
2021/12/30 06:29:03;;;;;;;;;;;10.70;99.90;;;;;;5093571;28;19934;-77
2021/12/30 06:31:29;;;;;;;;;;;10.70;99.90;;;;;;5093572;28;19908;-77
2021/12/30 06:33:54;;;;;;;;;;;10.60;99.90;;;;;;5093009;28;20257;-77
2021/12/30 06:36:21;;;;;;;;;;;10.70;99.90;;;;;;5093454;28;19912;-77
2021/12/30 06:38:47;;;;;;;;;;;10.70;99.90;;;;;;5093255;28;19965;-77
2021/12/30 06:41:12;;;;;;;;;;;10.60;99.90;;;;;;5093296;28;19908;-77
2021/12/30 06:43:39;;;;;;;;;;;10.60;99.90;;;;;;5092786;28;20338;-77
2021/12/30 06:46:05;;;;;;;;;;;10.60;99.90;;;;;;5093258;28;20024;-77
2021/12/30 06:48:31;;;;;;;;;;;10.60;99.90;;;;;;5093114;28;19934;-77
2021/12/30 06:50:59;;;;;;;;;;;10.60;99.90;;;;;;5093620;28;19908;-77
2021/12/30 06:53:25;;;;;;;;;;;10.60;99.90;;;;;;5074131;28;19912;-77
2021/12/30 06:55:51;;;;;;;;;;;10.60;99.90;;;;;;5092964;28;20265;-77
2021/12/30 06:58:17;;;;;;;;;;;10.60;99.90;;;;;;5093125;28;19915;-77
2021/12/30 07:00:42;;;;;;;;;;;10.50;99.90;;;;;;5092585;28;20482;-77
2021/12/30 07:03:08;;;;;;;;;;;10.60;99.90;;;;;;5091997;28;19950;-77
2021/12/30 07:05:33;;;;;;;;;;;10.60;99.90;;;;;;5092972;28;20365;-78
2021/12/30 07:08:00;;;;;;;;;;;10.50;99.90;;;;;;5092913;28;20066;-77
2021/12/30 07:10:25;;;;;;;;;;;10.50;99.90;;;;;;5092896;28;20272;-77
2021/12/30 07:12:51;;;;;;;;;;;10.50;99.90;;;;;;5092887;28;19908;-77
2021/12/30 07:15:16;;;;;;;;;;;10.50;99.90;;;;;;5074206;28;19920;-77
2021/12/30 07:17:42;;;;;;;;;;;10.50;99.90;;;;;;5092919;28;19908;-77
2021/12/30 07:20:08;;;;;;;;;;;10.60;99.90;;;;;;5092598;28;20033;-77
2021/12/30 07:22:34;;;;;;;;;;;10.60;99.90;;;;;;5086874;28;19912;-77
2021/12/30 07:25:00;;;;;;;;;;;10.60;99.90;;;;;;5091723;28;20292;-77
2021/12/30 07:27:25;;;;;;;;;;;10.70;99.90;;;;;;5092609;28;19912;-77
2021/12/30 07:29:51;;;;;;;;;;;10.70;99.90;;;;;;5074380;28;19908;-77
2021/12/30 07:32:17;;;;;;;;;;;10.60;99.90;;;;;;5092370;28;19909;-77
2021/12/30 07:34:42;;;;;;;;;;;10.60;99.90;;;;;;5091608;28;19932;-78
2021/12/30 07:37:08;;;;;;;;;;;10.60;99.90;;;;;;5092359;28;19937;-77
2021/12/30 07:39:33;;;;;;;;;;;10.60;99.90;;;;;;5092145;28;20361;-77
2021/12/30 07:41:59;;;;;;;;;;;10.70;99.90;;;;;;5073972;28;19926;-77
2021/12/30 07:44:24;;;;;;;;;;;10.60;99.90;;;;;;5091859;28;20425;-77
2021/12/30 07:46:50;;;;;;;;;;;10.70;99.90;;;;;;5092373;28;20006;-77
2021/12/30 07:49:15;;;;;;;;;;;10.60;99.90;;;;;;5092109;28;19908;-77
2021/12/30 07:51:41;;;;;;;;;;;10.70;99.90;;;;;;5086463;28;19917;-78
2021/12/30 07:54:06;;;;;;;;;;;10.70;99.90;;;;;;5078550;28;19958;-77
2021/12/30 07:56:32;;;;;;;;;;;10.70;99.90;;;;;;5081420;28;19912;-77
2021/12/30 07:58:58;;;;;;;;;;;10.80;99.90;;;;;;5091890;28;19955;-77
2021/12/30 08:01:23;;;;;;;;;;;10.90;99.90;;;;;;5092168;28;19943;-77
2021/12/30 08:03:49;;;;;;;;;;;10.80;99.90;;;;;;5091562;28;19916;-78
2021/12/30 08:06:14;;;;;;;;;;;10.90;99.90;;;;;;5093361;28;20574;-76
2021/12/30 08:08:40;;;;;;;;;;;10.90;99.90;;;;;;5092964;28;19912;-77
2021/12/30 08:11:05;;;;;;;;;;;10.90;99.90;;;;;;5092027;28;20340;-77
2021/12/30 08:13:31;;;;;;;;;;;10.90;99.90;;;;;;5091625;28;20284;-77
2021/12/30 08:15:56;;;;;;;;;;;11.00;99.90;;;;;;5090856;28;20361;-76
2021/12/30 08:18:22;;;;;;;;;;;11.00;99.90;;;;;;5091696;28;19973;-75
2021/12/30 08:20:48;;;;;;;;;;;11.00;99.90;;;;;;5091495;28;19998;-76
2021/12/30 08:23:13;;;;;;;;;;;11.00;99.90;;;;;;5085349;28;20010;-75
2021/12/30 08:25:39;;;;;;;;;;;10.90;99.90;;;;;;5091333;28;20429;-77
2021/12/30 08:28:04;;;;;;;;;;;11.00;99.90;;;;;;5091588;28;19915;-75
2021/12/30 08:30:30;;;;;;;;;;;11.20;99.90;;;;;;5091483;28;19957;-75
2021/12/30 08:32:56;;;;;;;;;;;11.30;99.90;;;;;;5091457;28;19909;-77
2021/12/30 08:35:22;;;;;;;;;;;11.40;99.90;;;;;;5090908;28;19919;-75
2021/12/30 08:37:48;;;;;;;;;;;11.40;99.90;;;;;;5091393;28;20384;-75
2021/12/30 08:40:15;;;;;;;;;;;11.40;99.90;;;;;;5091285;28;19939;-75
2021/12/30 08:42:41;;;;;;;;;;;11.50;99.90;;;;;;5073281;28;20304;-75
2021/12/30 08:45:07;;;;;;;;;;;11.50;99.90;;;;;;5091053;28;20368;-77
2021/12/30 08:47:33;;;;;;;;;;;11.50;99.90;;;;;;5091314;28;19955;-77
2021/12/30 08:49:59;;;;;;;;;;;11.60;99.90;;;;;;5073188;28;19912;-78
2021/12/30 08:52:26;;;;;;;;;;;11.60;99.90;;;;;;5085351;28;20307;-75
2021/12/30 08:54:53;;;;;;;;;;;11.70;99.90;;;;;;5090639;28;19919;-75
2021/12/30 08:57:21;;;;;;;;;;;11.90;99.90;;;;;;5091160;28;19908;-75
2021/12/30 08:59:47;;;;;;;;;;;12.00;99.90;;;;;;5091252;28;19956;-75
2021/12/30 09:02:13;;;;;;;;;;;12.10;99.90;;;;;;5091085;28;20345;-77
2021/12/30 09:04:42;;;;;;;;;;;12.40;99.90;;;;;;5091038;28;19967;-75
2021/12/30 09:07:08;;;;;;;;;;;12.50;99.90;;;;;;5073652;28;20010;-76
2021/12/30 09:09:33;;;;;;;;;;;12.90;99.90;;;;;;5091695;28;19935;-76
2021/12/30 09:11:59;;;;;;;;;;;13.20;99.90;;;;;;5091697;28;20032;-76
2021/12/30 09:14:24;;;;;;;;;;;13.90;99.90;;;;;;5090726;28;20333;-76
2021/12/30 09:16:50;;;;;;;;;;;14.10;99.90;;;;;;5091314;28;20110;-76
2021/12/30 09:19:16;;;;;;;;;;;14.50;99.90;;;;;;5091758;28;19915;-76
2021/12/30 09:21:42;;;;;;;;;;;15.00;99.90;;;;;;5085122;28;19966;-76
2021/12/30 09:24:08;;;;;;;;;;;15.20;99.90;;;;;;5090388;28;19909;-77
2021/12/30 09:26:33;;;;;;;;;;;14.80;99.90;;;;;;5092919;28;19912;-76
2021/12/30 09:28:59;;;;;;;;;;;15.40;99.90;;;;;;5089901;28;20401;-75
2021/12/30 09:31:25;;;;;;;;;;;15.40;99.90;;;;;;5096150;28;19983;-75
2021/12/30 09:33:50;;;;;;;;;;;15.70;99.90;;;;;;5094833;28;19916;-76
2021/12/30 09:36:16;;;;;;;;;;;15.90;99.90;;;;;;5095963;28;19908;-77
2021/12/30 09:38:41;;;;;;;;;;;15.80;99.90;;;;;;5095383;28;19966;-77
2021/12/30 09:41:07;;;;;;;;;;;15.70;99.90;;;;;;5095355;28;19975;-76
2021/12/30 09:43:34;;;;;;;;;;;15.80;99.90;;;;;;5094444;28;20383;-76
2021/12/30 09:46:00;;;;;;;;;;;15.60;99.90;;;;;;5094913;28;20617;-77
2021/12/30 09:48:25;;;;;;;;;;;15.20;99.90;;;;;;5090513;28;19939;-77
2021/12/30 09:50:53;;;;;;;;;;;14.30;99.90;;;;;;5094568;28;20372;-77
2021/12/30 09:53:19;;;;;;;;;;;14.00;99.90;;;;;;5094075;28;19908;-77
2021/12/30 09:55:45;;;;;;;;;;;14.20;99.90;;;;;;5076296;28;19961;-76
2021/12/30 09:58:11;;;;;;;;;;;14.50;99.90;;;;;;5094386;28;19908;-76
2021/12/30 10:00:36;;;;;;;;;;;14.70;99.90;;;;;;5094546;28;19909;-77
2021/12/30 10:03:03;;;;;;;;;;;14.60;99.90;;;;;;5075941;28;19936;-78
2021/12/30 10:05:31;;;;;;;;;;;14.30;99.90;;;;;;5095570;28;19916;-77
2021/12/30 10:08:08;;;;;;;;;;;14.70;99.90;;;;;;5075785;28;19914;-77
2021/12/30 10:10:35;;;;;;;;;;;14.50;99.90;;;;;;5094274;28;19909;-77
2021/12/30 10:13:13;;;;;;;;;;;14.80;99.90;;;;;;5093600;28;20283;-76
2021/12/30 10:15:43;;;;;;;;;;;14.40;99.90;;;;;;5073573;28;19916;-77
2021/12/30 10:18:09;;;;;;;;;;;14.50;99.90;;;;;;5088481;28;19961;-77
2021/12/30 10:20:37;;;;;;;;;;;14.80;99.90;;;;;;5094155;28;19912;-78
2021/12/30 10:23:15;;;;;;;;;;;15.00;99.90;;;;;;5094934;28;19912;-77
2021/12/30 10:25:42;;;;;;;;;;;14.60;99.90;;;;;;5094760;28;19916;-78
2021/12/30 10:28:26;;;;;;;;;;;14.20;99.90;;;;;;5093739;28;19908;-77
2021/12/30 10:31:12;;;;;;;;;;;14.00;99.90;;;;;;5093569;28;19931;-75
2021/12/30 10:33:46;;;;;;;;;;;14.00;99.90;;;;;;5072187;28;19908;-75
2021/12/30 10:36:19;;;;;;;;;;;13.90;99.90;;;;;;5087929;28;19908;-75
2021/12/30 10:38:45;;;;;;;;;;;14.00;99.90;;;;;;5092483;28;19954;-76
2021/12/30 10:41:10;;;;;;;;;;;13.90;99.90;;;;;;5093442;28;19915;-75
2021/12/30 10:43:45;;;;;;;;;;;14.00;99.90;;;;;;5092946;28;19961;-75
2021/12/30 10:46:15;;;;;;;;;;;14.10;99.90;;;;;;5093453;28;19967;-75
2021/12/30 10:48:51;;;;;;;;;;;14.50;99.90;;;;;;5091187;28;19919;-75
2021/12/30 10:51:31;;;;;;;;;;;15.00;99.90;;;;;;5074883;28;19936;-75
2021/12/30 10:53:58;;;;;;;;;;;14.90;99.90;;;;;;5075270;28;19915;-76
2021/12/30 10:56:24;;;;;;;;;;;15.00;99.90;;;;;;5076693;28;19908;-77
2021/12/30 10:58:50;;;;;;;;;;;14.90;99.90;;;;;;5094234;28;20018;-75
2021/12/30 11:01:17;;;;;;;;;;;14.90;99.90;;;;;;5093587;28;20427;-76
2021/12/30 11:03:53;;;;;;;;;;;15.10;99.90;;;;;;5092525;28;19916;-76
2021/12/30 11:06:18;;;;;;;;;;;15.20;99.90;;;;;;5092850;28;19919;-75
2021/12/30 11:08:46;;;;;;;;;;;15.20;99.90;;;;;;5092962;28;19908;-76
2021/12/30 11:11:25;;;;;;;;;;;15.00;99.90;;;;;;5093148;28;19915;-77
2021/12/30 11:14:04;;;;;;;;;;;14.80;99.90;;;;;;5092147;28;19918;-75
2021/12/30 11:16:30;;;;;;;;;;;14.80;99.90;;;;;;5091653;28;19916;-75
2021/12/30 11:18:56;;;;;;;;;;;14.90;99.90;;;;;;5091846;28;20403;-77
2021/12/30 11:21:41;;;;;;;;;;;15.20;99.90;;;;;;5092717;28;19915;-75
2021/12/30 11:24:08;;;;;;;;;;;15.10;99.90;;;;;;5091723;28;19908;-76
2021/12/30 11:26:33;;;;;;;;;;;14.90;99.90;;;;;;5092790;28;19909;-75
2021/12/30 11:28:59;;;;;;;;;;;14.70;99.90;;;;;;5092821;28;19908;-75
2021/12/30 11:31:25;;;;;;;;;;;14.80;99.90;;;;;;5092959;28;19908;-75
2021/12/30 11:33:51;;;;;;;;;;;14.60;99.90;;;;;;5093021;28;19908;-76
2021/12/30 11:36:17;;;;;;;;;;;14.60;99.90;;;;;;5092894;28;19908;-75
2021/12/30 11:38:43;;;;;;;;;;;14.60;99.90;;;;;;5092790;28;19962;-76
2021/12/30 11:41:15;;;;;;;;;;;14.70;99.90;;;;;;5092577;28;19908;-77
2021/12/30 11:43:42;;;;;;;;;;;14.90;99.90;;;;;;5091628;28;20356;-76
2021/12/30 11:46:07;;;;;;;;;;;14.90;99.90;;;;;;5092242;28;20004;-76
2021/12/30 11:48:38;;;;;;;;;;;14.80;99.90;;;;;;5091232;28;20388;-75
2021/12/30 11:51:08;;;;;;;;;;;14.80;99.90;;;;;;5089865;28;19908;-76
2021/12/30 11:53:34;;;;;;;;;;;14.80;99.90;;;;;;5092369;28;19908;-76
2021/12/30 11:56:04;;;;;;;;;;;14.80;99.90;;;;;;5092719;28;20452;-76
2021/12/30 11:58:29;;;;;;;;;;;14.70;99.90;;;;;;5092919;28;19908;-76
2021/12/30 12:00:56;;;;;;;;;;;14.70;99.90;;;;;;5092170;28;19920;-76
2021/12/30 12:03:34;;;;;;;;;;;14.70;99.90;;;;;;5091670;28;19965;-76
2021/12/30 12:05:59;;;;;;;;;;;14.80;99.90;;;;;;5089542;28;20284;-77
2021/12/30 12:08:29;;;;;;;;;;;14.80;99.90;;;;;;5073317;28;19908;-78
2021/12/30 12:11:13;;;;;;;;;;;14.70;99.90;;;;;;5073286;28;19908;-76
2021/12/30 12:13:40;;;;;;;;;;;14.60;99.90;;;;;;5091244;28;20090;-76
2021/12/30 12:16:05;;;;;;;;;;;14.40;99.90;;;;;;5073012;28;20375;-76
2021/12/30 12:18:31;;;;;;;;;;;14.30;99.90;;;;;;5073135;28;19908;-76
2021/12/30 12:20:59;;;;;;;;;;;14.20;99.90;;;;;;5067881;28;20474;-76
2021/12/30 12:23:45;;;;;;;;;;;14.30;99.90;;;;;;5091169;28;19915;-76
2021/12/30 12:26:21;;;;;;;;;;;14.30;99.90;;;;;;5073706;28;19923;-76
2021/12/30 12:28:47;;;;;;;;;;;14.40;99.90;;;;;;5092093;28;20057;-77
2021/12/30 12:31:15;;;;;;;;;;;14.60;99.90;;;;;;5073119;28;19914;-74
2021/12/30 12:33:42;;;;;;;;;;;14.70;99.90;;;;;;5090781;28;19912;-74
2021/12/30 12:36:14;;;;;;;;;;;14.80;99.90;;;;;;5091096;28;20003;-74
2021/12/30 12:38:47;;;;;;;;;;;14.70;99.90;;;;;;5090735;28;19915;-74
2021/12/30 12:41:21;;;;;;;;;;;14.70;99.90;;;;;;5090992;28;19908;-74
2021/12/30 12:43:49;;;;;;;;;;;14.80;99.90;;;;;;5106631;28;19896;-75
2021/12/30 12:46:14;;;;;;;;;;;15.00;99.90;;;;;;5114117;28;19939;-76
2021/12/30 12:48:41;;;;;;;;;;;15.00;99.90;;;;;;5112883;28;19915;-76
2021/12/30 12:51:22;;;;;;;;;;;14.90;99.90;;;;;;5114760;28;19926;-78
2021/12/30 12:53:51;;;;;;;;;;;14.70;99.90;;;;;;5116093;28;19904;-76
2021/12/30 12:56:29;;;;;;;;;;;14.60;99.90;;;;;;5117422;28;19900;-76
2021/12/30 12:58:55;;;;;;;;;;;14.40;99.90;;;;;;5116815;28;19923;-79
2021/12/30 13:01:22;;;;;;;;;;;14.30;99.90;;;;;;5117859;28;19967;-79
2021/12/30 13:03:48;;;;;;;;;;;14.40;99.90;;;;;;5103466;28;19896;-76
2021/12/30 13:06:16;;;;;;;;;;;14.30;99.90;;;;;;5121249;28;19972;-78
2021/12/30 13:08:43;;;;;;;;;;;14.20;99.90;;;;;;5121359;28;19918;-79
2021/12/30 13:11:10;;;;;;;;;;;14.10;99.90;;;;;;5121492;28;20126;-77
2021/12/30 13:13:37;;;;;;;;;;;14.20;99.90;;;;;;5120812;28;19937;-77
2021/12/30 13:16:04;;;;;;;;;;;14.20;99.90;;;;;;5120491;28;19983;-77
2021/12/30 13:18:30;;;;;;;;;;;14.20;99.90;;;;;;5120485;28;19911;-77
2021/12/30 13:20:56;;;;;;;;;;;14.20;99.90;;;;;;5103385;28;19979;-77
2021/12/30 13:23:30;;;;;;;;;;;14.10;99.90;;;;;;5120731;28;19904;-78
2021/12/30 13:26:01;;;;;;;;;;;14.10;99.90;;;;;;5121063;28;19908;-78
2021/12/30 13:28:27;;;;;;;;;;;14.00;99.90;;;;;;5121004;28;19920;-77
2021/12/30 13:31:03;;;;;;;;;;;14.00;99.90;;;;;;5120273;28;19909;-78
2021/12/30 13:33:29;;;;;;;;;;;14.10;99.90;;;;;;5120574;28;19900;-78
2021/12/30 13:35:54;;;;;;;;;;;14.10;99.90;;;;;;5103437;28;20106;-78
2021/12/30 13:38:24;;;;;;;;;;;14.10;99.90;;;;;;5120808;28;19908;-78
2021/12/30 13:40:49;;;;;;;;;;;13.90;99.90;;;;;;5120749;28;19916;-78
2021/12/30 13:43:19;;;;;;;;;;;13.80;99.90;;;;;;5102768;28;19954;-78
2021/12/30 13:45:45;;;;;;;;;;;13.70;99.90;;;;;;5102632;28;19916;-76
2021/12/30 13:48:17;;;;;;;;;;;13.60;99.90;;;;;;5093023;28;19991;-76
2021/12/30 13:50:45;;;;;;;;;;;13.70;99.90;;;;;;5094564;28;20365;-76
2021/12/30 13:53:16;;;;;;;;;;;13.70;99.90;;;;;;5093612;28;19912;-76
2021/12/30 13:55:46;;;;;;;;;;;13.80;99.90;;;;;;5087523;28;19973;-76
2021/12/30 13:58:14;;;;;;;;;;;13.80;99.90;;;;;;5075699;28;19931;-77
2021/12/30 14:00:44;;;;;;;;;;;13.70;99.90;;;;;;5093900;28;20343;-76
2021/12/30 14:03:11;;;;;;;;;;;13.70;99.90;;;;;;5074343;28;19918;-75
2021/12/30 14:05:37;;;;;;;;;;;13.70;99.90;;;;;;5075400;28;19995;-76
2021/12/30 14:08:12;;;;;;;;;;;13.70;99.90;;;;;;5093989;28;20348;-76
2021/12/30 14:10:44;;;;;;;;;;;13.60;99.90;;;;;;5094277;28;19909;-76
2021/12/30 14:13:09;;;;;;;;;;;13.50;99.90;;;;;;5092724;28;19909;-76
2021/12/30 14:15:35;;;;;;;;;;;13.40;99.90;;;;;;5093441;28;20284;-76